Weather at Swift Current Airport

Public forecast

Using degrees Celsius for public forecast. Weather courtesy of forecast.io.

Current aviation weather report (METAR) for Swift Current Airport

Retrieved 2021/04/16 17:00 UTC (34 minutes ago):

CYYN 161700Z AUTO 02014G25KT 9SM CLR 10/M06 A3027 RMK SLP274

Aviation forecast (TAF) for Swift Current Airport

Retrieved 2021/04/16 12:39 UTC (5 hours ago):

TAF CYYN 161138Z 1612/1624 26010KT P6SM SKC BECMG 1616/1618 36012KT RMK FCST BASED ON AUTO OBS NXT FCST BY 161800Z